createdAt,value
2023-03-26T00:02:41.938Z,3.7
2023-03-26T00:07:41.791Z,4.6
2023-03-26T00:12:41.695Z,4.3
2023-03-26T00:17:41.731Z,4.1
2023-03-26T00:22:41.620Z,4.1
2023-03-26T00:27:41.662Z,4.7
2023-03-26T00:32:41.683Z,4.6
2023-03-26T00:37:41.588Z,4.7
2023-03-26T00:42:43.467Z,4.8
2023-03-26T00:47:41.396Z,5.5
2023-03-26T00:52:41.348Z,5.3
2023-03-26T00:57:41.270Z,4.8
2023-03-26T01:02:41.243Z,5.9
2023-03-26T01:07:41.148Z,6.4
2023-03-26T01:12:41.145Z,6.4
2023-03-26T01:17:41.083Z,5.6
2023-03-26T01:22:40.996Z,6.1
2023-03-26T01:27:40.955Z,5.9
2023-03-26T01:32:40.968Z,6.1
2023-03-26T01:37:40.781Z,6.1
2023-03-26T01:42:40.760Z,6.5
2023-03-26T01:47:40.768Z,7.6
2023-03-26T01:52:40.653Z,6.4
2023-03-26T01:57:40.550Z,6.1
2023-03-26T02:02:40.721Z,6.0
2023-03-26T02:07:40.589Z,6.5
2023-03-26T02:12:40.439Z,5.9
2023-03-26T02:17:40.596Z,6.6
2023-03-26T02:22:40.367Z,7.4
2023-03-26T02:27:40.300Z,5.9
2023-03-26T02:32:40.313Z,7.9
2023-03-26T02:37:40.189Z,6.5
2023-03-26T02:42:40.131Z,6.6
2023-03-26T02:47:40.131Z,6.1
2023-03-26T02:52:40.075Z,6.5
2023-03-26T02:57:39.940Z,6.3
2023-03-26T03:02:40.003Z,6.5
2023-03-26T03:07:39.838Z,6.3
2023-03-26T03:12:39.870Z,6.7
2023-03-26T03:17:39.780Z,5.7
2023-03-26T03:22:39.892Z,5.6
2023-03-26T03:27:39.660Z,6.4
2023-03-26T03:32:39.703Z,6.2
2023-03-26T03:37:39.525Z,6.9
2023-03-26T03:42:39.476Z,6.4
2023-03-26T03:47:39.557Z,4.9
2023-03-26T03:52:39.429Z,5.4
2023-03-26T03:57:39.346Z,5.8
2023-03-26T04:02:39.412Z,5.6
2023-03-26T04:07:39.412Z,6.3
2023-03-26T04:12:39.334Z,5.5
2023-03-26T04:17:39.260Z,6.4
2023-03-26T04:22:39.174Z,5.5
2023-03-26T04:27:39.166Z,6.4
2023-03-26T04:32:40.119Z,5.7
2023-03-26T04:37:39.111Z,6.1
2023-03-26T04:42:38.961Z,6.2
2023-03-26T04:47:38.896Z,6.0
2023-03-26T04:52:38.877Z,5.8
2023-03-26T04:57:38.762Z,5.2
2023-03-26T05:02:38.772Z,5.2
2023-03-26T05:07:38.654Z,4.8
2023-03-26T05:12:38.556Z,5.7
2023-03-26T05:17:38.492Z,5.5
2023-03-26T05:22:38.500Z,5.3
2023-03-26T05:27:38.513Z,5.9
2023-03-26T05:32:38.586Z,5.7
2023-03-26T05:37:39.472Z,6.0
2023-03-26T05:42:39.493Z,5.5
2023-03-26T05:47:38.464Z,6.2
2023-03-26T05:52:38.266Z,6.1
2023-03-26T05:57:38.044Z,5.3
2023-03-26T06:02:38.268Z,5.4
2023-03-26T06:07:38.018Z,4.7
2023-03-26T06:12:37.937Z,5.6
2023-03-26T06:17:40.183Z,4.4
2023-03-26T06:22:37.828Z,5.4
2023-03-26T06:27:37.780Z,5.3
2023-03-26T06:32:37.782Z,4.8
2023-03-26T06:37:37.629Z,4.1
2023-03-26T06:43:08.088Z,5.0
2023-03-26T06:47:38.609Z,5.8
2023-03-26T06:52:37.437Z,6.3
2023-03-26T06:57:37.417Z,6.5
2023-03-26T07:02:37.478Z,5.0
2023-03-26T07:07:37.302Z,5.7
2023-03-26T07:12:38.229Z,5.5
2023-03-26T07:17:37.190Z,4.7
2023-03-26T07:22:37.154Z,5.9
2023-03-26T07:27:37.150Z,8.0
2023-03-26T07:32:37.141Z,6.7
2023-03-26T07:37:37.157Z,7.9
2023-03-26T07:42:37.056Z,6.7
2023-03-26T07:47:37.024Z,5.2
2023-03-26T07:52:36.924Z,5.1
2023-03-26T07:57:36.779Z,5.7
2023-03-26T08:02:36.941Z,4.2
2023-03-26T08:07:36.809Z,4.3
2023-03-26T08:12:36.692Z,4.1
2023-03-26T08:17:36.630Z,4.1
2023-03-26T08:22:36.440Z,4.7
2023-03-26T08:27:38.580Z,4.6
2023-03-26T08:32:36.404Z,5.4
2023-03-26T08:37:36.296Z,4.4
2023-03-26T08:42:36.314Z,4.6
2023-03-26T08:47:36.371Z,4.8
2023-03-26T08:52:37.278Z,4.2
2023-03-26T08:57:37.268Z,4.1
2023-03-26T09:02:36.083Z,4.2
2023-03-26T09:07:37.039Z,3.4
2023-03-26T09:12:36.005Z,2.7
2023-03-26T09:17:35.958Z,2.8
2023-03-26T09:22:36.988Z,3.7
2023-03-26T09:27:36.785Z,3.3
2023-03-26T09:32:35.775Z,2.7
2023-03-26T09:37:35.642Z,3.5
2023-03-26T09:42:36.712Z,2.6
2023-03-26T09:47:35.633Z,3.1
2023-03-26T09:52:35.766Z,2.7
2023-03-26T09:57:35.556Z,3.0
2023-03-26T10:02:46.851Z,2.0
2023-03-26T10:07:36.487Z,1.6
2023-03-26T10:12:36.338Z,2.0
2023-03-26T10:17:35.262Z,1.8
2023-03-26T10:22:35.207Z,2.2
2023-03-26T10:27:35.074Z,1.2
2023-03-26T10:32:35.105Z,0.7
2023-03-26T10:37:35.039Z,1.4
2023-03-26T10:42:34.965Z,0.8
2023-03-26T10:47:35.002Z,1.2
2023-03-26T10:52:35.927Z,0.9
2023-03-26T10:57:34.791Z,1.0
2023-03-26T11:02:34.818Z,1.0
2023-03-26T11:07:34.673Z,0.6
2023-03-26T11:12:34.960Z,1.3
2023-03-26T11:17:40.627Z,1.2
2023-03-26T11:22:38.999Z,0.7
2023-03-26T11:27:34.572Z,0.8
2023-03-26T11:32:34.543Z,0.8
2023-03-26T11:37:34.512Z,0.8
2023-03-26T11:42:34.401Z,0.7
2023-03-26T11:47:34.379Z,0.7
2023-03-26T11:52:34.167Z,0.8
2023-03-26T11:57:34.224Z,0.5
2023-03-26T12:02:34.448Z,0.6
2023-03-26T12:07:34.047Z,0.4
2023-03-26T12:12:34.031Z,0.6
2023-03-26T12:17:34.050Z,0.6
2023-03-26T12:22:34.909Z,0.3
2023-03-26T12:27:33.783Z,0.6
2023-03-26T12:37:43.548Z,0.7
2023-03-26T12:44:43.007Z,0.6
2023-03-26T12:48:01.349Z,0.7
2023-03-26T12:52:34.456Z,0.5
2023-03-26T12:57:33.404Z,0.6
2023-03-26T13:02:33.375Z,0.7
2023-03-26T13:07:33.299Z,0.6
2023-03-26T13:12:33.239Z,0.4
2023-03-26T13:17:33.248Z,0.7
2023-03-26T13:22:33.272Z,0.8
2023-03-26T13:27:33.090Z,0.5
2023-03-26T13:32:33.105Z,0.6
2023-03-26T13:37:33.029Z,1.0
2023-03-26T13:42:32.939Z,0.8
2023-03-26T13:47:32.902Z,1.3
2023-03-26T13:52:32.821Z,1.0
2023-03-26T13:57:32.782Z,0.6
2023-03-26T14:02:32.716Z,0.8
2023-03-26T14:07:32.660Z,0.5
2023-03-26T14:12:32.597Z,0.5
2023-03-26T14:17:33.621Z,0.5
2023-03-26T14:22:32.562Z,0.7
2023-03-26T14:27:32.495Z,0.5
2023-03-26T14:32:32.555Z,0.6
2023-03-26T14:37:33.505Z,0.8
2023-03-26T14:42:32.426Z,0.6
2023-03-26T14:47:32.464Z,0.5
2023-03-26T14:52:32.169Z,0.7
2023-03-26T14:57:32.092Z,0.7
2023-03-26T15:02:32.191Z,0.8
2023-03-26T15:07:32.113Z,0.9
2023-03-26T15:12:32.047Z,1.5
2023-03-26T15:17:31.931Z,0.9
2023-03-26T15:22:31.852Z,1.0
2023-03-26T15:27:31.821Z,1.1
2023-03-26T15:32:31.783Z,1.0
2023-03-26T15:37:31.658Z,1.4
2023-03-26T15:42:31.646Z,1.4
2023-03-26T15:47:31.691Z,2.4
2023-03-26T15:52:31.505Z,2.8
2023-03-26T15:57:31.440Z,1.9
2023-03-26T16:02:31.408Z,3.2
2023-03-26T16:07:31.305Z,2.2
2023-03-26T16:12:31.289Z,2.0
2023-03-26T16:17:31.300Z,2.2
2023-03-26T16:22:31.179Z,1.9
2023-03-26T16:27:31.125Z,1.8
2023-03-26T16:32:31.073Z,1.9
2023-03-26T16:37:31.033Z,1.7
2023-03-26T16:42:31.037Z,1.7
2023-03-26T16:47:30.948Z,1.8
2023-03-26T16:52:30.915Z,1.9
2023-03-26T16:57:30.821Z,3.0
2023-03-26T17:02:30.850Z,3.3
2023-03-26T17:07:30.744Z,5.5
2023-03-26T17:12:30.650Z,5.1
2023-03-26T17:17:30.694Z,6.9
2023-03-26T17:22:30.567Z,7.0
2023-03-26T17:27:30.479Z,7.5
2023-03-26T17:32:30.445Z,6.6
2023-03-26T17:37:30.380Z,7.2
2023-03-26T17:42:30.333Z,5.2
2023-03-26T17:47:30.288Z,5.6
2023-03-26T17:52:30.217Z,5.2
2023-03-26T17:57:30.179Z,5.1
2023-03-26T18:02:30.133Z,5.5
2023-03-26T18:07:30.066Z,5.7
2023-03-26T18:12:30.018Z,5.3
2023-03-26T18:17:29.945Z,4.9
2023-03-26T18:22:29.863Z,4.4
2023-03-26T18:27:29.950Z,5.5
2023-03-26T18:32:29.776Z,5.6
2023-03-26T18:37:29.808Z,4.4
2023-03-26T18:42:29.749Z,4.8
2023-03-26T18:47:33.103Z,4.9
2023-03-26T18:52:29.644Z,4.1
2023-03-26T18:57:29.624Z,4.7
2023-03-26T19:02:29.654Z,4.4
2023-03-26T19:07:29.398Z,4.0
2023-03-26T19:12:29.344Z,4.7
2023-03-26T19:17:29.349Z,5.0
2023-03-26T19:22:29.382Z,3.7
2023-03-26T19:27:29.199Z,4.5
2023-03-26T19:32:29.290Z,3.7
2023-03-26T19:37:29.219Z,4.2
2023-03-26T19:42:44.031Z,5.2
2023-03-26T19:47:39.330Z,4.4
2023-03-26T19:52:29.874Z,3.9
2023-03-26T19:57:28.877Z,3.9
2023-03-26T20:02:28.886Z,4.9
2023-03-26T20:07:35.630Z,4.6
2023-03-26T20:12:29.793Z,3.7
2023-03-26T20:17:37.645Z,4.0
2023-03-26T20:22:28.636Z,3.8
2023-03-26T20:27:28.663Z,4.5
2023-03-26T20:32:29.604Z,3.3
2023-03-26T20:37:28.519Z,3.0
2023-03-26T20:42:28.425Z,2.7
2023-03-26T20:47:28.391Z,3.1
2023-03-26T20:52:28.339Z,4.4
2023-03-26T20:57:28.288Z,4.0
2023-03-26T21:02:28.290Z,3.9
2023-03-26T21:07:28.138Z,3.7
2023-03-26T21:12:28.050Z,2.2
2023-03-26T21:17:28.151Z,3.7
2023-03-26T21:22:29.957Z,2.9
2023-03-26T21:27:27.967Z,2.9
2023-03-26T21:32:27.929Z,3.7
2023-03-26T21:37:27.950Z,2.3
2023-03-26T21:42:27.779Z,3.3
2023-03-26T21:47:28.784Z,3.4
2023-03-26T21:52:27.703Z,3.7
2023-03-26T21:57:27.554Z,3.7
2023-03-26T22:02:27.534Z,3.6
2023-03-26T22:07:27.443Z,3.9
2023-03-26T22:12:27.443Z,4.0
2023-03-26T22:17:27.411Z,3.7
2023-03-26T22:22:28.371Z,2.6
2023-03-26T22:27:27.360Z,2.6
2023-03-26T22:32:27.362Z,3.6
2023-03-26T22:37:28.267Z,3.6
2023-03-26T22:42:27.083Z,2.8
2023-03-26T22:47:27.142Z,3.2
2023-03-26T22:52:27.024Z,3.2
2023-03-26T22:57:27.023Z,3.2
2023-03-26T23:02:26.878Z,3.1
2023-03-26T23:07:26.812Z,3.4
2023-03-26T23:12:26.774Z,2.7
2023-03-26T23:17:26.754Z,3.1
2023-03-26T23:22:26.732Z,2.8
2023-03-26T23:27:26.726Z,2.5
2023-03-26T23:32:26.745Z,3.0
2023-03-26T23:37:26.721Z,3.0
2023-03-26T23:42:28.309Z,2.9
2023-03-26T23:47:26.584Z,3.2
2023-03-26T23:52:26.490Z,3.5
2023-03-26T23:57:26.344Z,3.5
